Time;durP1;ratioP1;P1;durP2;ratioP2;P2;SDS_P1;SDS_P2;PMS_P1;PMS_P2;Temp;Humidity;BMP_temperature;BMP_pressure;BME280_temperature;BME280_humidity;BME280_pressure;Samples;Min_cycle;Max_cycle;Signal;HPM_P1;HPM_P2
2023/12/21 00:01:36;;;;;;;29.38;5.10;;;8.30;99.90;;;;;;5056651;28;20492;-71
2023/12/21 00:04:03;;;;;;;21.47;5.10;;;8.30;99.90;;;;;;5058798;28;20135;-69
2023/12/21 00:06:29;;;;;;;23.52;5.03;;;9.00;99.90;;;;;;5046688;28;20126;-69
2023/12/21 00:08:55;;;;;;;23.13;4.65;;;9.00;99.90;;;;;;5050618;28;20174;-69
2023/12/21 00:11:21;;;;;;;23.33;5.13;;;8.60;99.90;;;;;;5057019;28;20040;-69
2023/12/21 00:13:47;;;;;;;23.75;6.13;;;9.00;99.90;;;;;;5056205;28;20045;-70
2023/12/21 00:16:13;;;;;;;22.13;5.40;;;8.30;99.90;;;;;;5062122;28;20028;-69
2023/12/21 00:18:38;;;;;;;24.10;5.65;;;9.00;99.90;;;;;;5064501;28;20415;-69
2023/12/21 00:21:04;;;;;;;16.45;5.20;;;8.30;99.90;;;;;;5064610;28;20037;-70
2023/12/21 00:23:30;;;;;;;21.52;5.13;;;9.10;99.90;;;;;;5055471;28;20099;-69
2023/12/21 00:25:55;;;;;;;17.20;4.82;;;8.40;99.90;;;;;;5046294;28;20044;-69
2023/12/21 00:28:21;;;;;;;27.75;5.55;;;9.10;99.90;;;;;;5067393;28;20040;-69
2023/12/21 00:30:46;;;;;;;20.67;5.53;;;9.10;99.90;;;;;;5054697;28;20084;-69
2023/12/21 00:33:12;;;;;;;20.92;5.63;;;8.50;99.90;;;;;;5048395;28;22278;-69
2023/12/21 00:35:38;;;;;;;20.60;6.63;;;8.70;99.90;;;;;;5045203;28;20472;-67
2023/12/21 00:38:03;;;;;;;19.20;5.18;;;8.50;99.90;;;;;;5063550;28;20041;-69
2023/12/21 00:40:29;;;;;;;27.25;6.50;;;8.50;99.90;;;;;;5060896;28;20047;-68
2023/12/21 00:42:55;;;;;;;26.08;6.18;;;8.30;99.90;;;;;;5062447;28;20048;-69
2023/12/21 00:45:21;;;;;;;20.33;5.07;;;8.40;99.90;;;;;;5062512;28;20403;-68
2023/12/21 00:47:48;;;;;;;16.05;5.03;;;9.10;99.90;;;;;;5061322;28;20123;-68
2023/12/21 00:50:14;;;;;;;22.23;5.60;;;8.50;99.90;;;;;;5069691;28;20350;-67
2023/12/21 00:52:40;;;;;;;31.83;5.85;;;8.50;99.90;;;;;;5055224;28;20044;-68
2023/12/21 00:55:06;;;;;;;21.08;5.00;;;8.40;99.90;;;;;;5063484;28;20115;-68
2023/12/21 00:57:32;;;;;;;28.13;5.25;;;8.30;99.90;;;;;;5062100;28;20038;-68
2023/12/21 00:59:57;;;;;;;31.10;7.47;;;8.30;99.90;;;;;;5056924;28;20449;-68
2023/12/21 01:02:23;;;;;;;25.67;5.88;;;8.70;99.90;;;;;;5056633;28;20058;-69
2023/12/21 01:04:48;;;;;;;24.70;5.47;;;8.50;99.90;;;;;;5051564;28;20086;-67
2023/12/21 01:07:14;;;;;;;24.40;5.45;;;8.50;99.90;;;;;;5050138;28;20052;-68
2023/12/21 01:09:39;;;;;;;21.40;6.00;;;8.40;99.90;;;;;;5058035;28;20068;-68
2023/12/21 01:12:06;;;;;;;27.17;5.72;;;9.00;99.90;;;;;;5054889;28;20029;-68
2023/12/21 01:14:32;;;;;;;28.17;5.28;;;9.00;99.90;;;;;;5079111;28;20041;-69
2023/12/21 01:16:57;;;;;;;22.40;4.68;;;9.00;99.90;;;;;;5055295;28;20032;-69
2023/12/21 01:19:23;;;;;;;23.67;5.15;;;8.40;99.90;;;;;;5045126;28;20468;-69
2023/12/21 01:21:49;;;;;;;23.45;5.43;;;8.50;99.90;;;;;;5049852;28;20468;-69
2023/12/21 01:24:14;;;;;;;22.02;5.40;;;9.20;99.90;;;;;;5043682;28;20041;-69
2023/12/21 01:26:40;;;;;;;20.05;5.90;;;9.10;99.90;;;;;;5047286;28;20069;-69
2023/12/21 01:29:06;;;;;;;26.05;5.47;;;9.20;99.90;;;;;;5035584;28;20040;-68
2023/12/21 01:31:31;;;;;;;25.95;5.45;;;8.30;99.90;;;;;;5038198;28;20060;-67
2023/12/21 01:33:57;;;;;;;22.25;4.97;;;8.80;99.90;;;;;;5057140;28;20119;-70
2023/12/21 01:36:23;;;;;;;19.45;5.07;;;9.00;99.90;;;;;;5060142;28;20099;-68
2023/12/21 01:38:48;;;;;;;24.85;5.70;;;8.40;99.90;;;;;;5048122;28;20049;-69
2023/12/21 01:41:14;;;;;;;25.17;5.43;;;9.00;99.90;;;;;;5069509;28;20052;-68
2023/12/21 01:43:39;;;;;;;16.17;5.00;;;8.80;99.90;;;;;;5049333;28;20040;-68
2023/12/21 01:46:05;;;;;;;20.83;5.53;;;8.60;99.90;;;;;;5052288;28;20071;-68
2023/12/21 01:48:31;;;;;;;18.83;4.68;;;8.90;99.90;;;;;;5060042;28;20036;-68
2023/12/21 01:51:01;;;;;;;24.40;4.88;;;8.40;99.90;;;;;;5065817;28;20449;-67
2023/12/21 01:53:28;;;;;;;24.90;5.55;;;8.30;99.90;;;;;;5045498;28;20052;-68
2023/12/21 01:55:55;;;;;;;22.83;5.07;;;8.40;99.90;;;;;;5049596;28;20404;-69
2023/12/21 01:58:21;;;;;;;23.23;5.07;;;8.40;99.90;;;;;;5055741;28;20036;-68
2023/12/21 02:00:46;;;;;;;25.48;5.88;;;9.00;99.90;;;;;;5056158;28;20036;-68
2023/12/21 02:03:12;;;;;;;17.45;4.60;;;8.60;99.90;;;;;;5056799;28;20036;-68
2023/12/21 02:05:38;;;;;;;24.48;4.85;;;9.00;99.90;;;;;;5053506;28;20048;-67
2023/12/21 02:08:04;;;;;;;23.38;5.70;;;8.60;99.90;;;;;;5056155;28;20048;-68
2023/12/21 02:10:29;;;;;;;20.67;4.90;;;9.00;99.90;;;;;;5049089;28;20127;-69
2023/12/21 02:12:56;;;;;;;18.40;5.63;;;9.10;99.90;;;;;;5060033;28;20139;-68
2023/12/21 02:15:22;;;;;;;20.95;5.38;;;8.50;99.90;;;;;;5059116;28;20493;-68
2023/12/21 02:17:49;;;;;;;17.00;5.18;;;9.00;99.90;;;;;;5075246;28;20032;-69
2023/12/21 02:20:16;;;;;;;26.75;6.00;;;9.00;99.90;;;;;;5070640;28;20051;-68
2023/12/21 02:22:44;;;;;;;18.60;5.30;;;8.60;99.90;;;;;;5065436;28;20044;-68
2023/12/21 02:25:11;;;;;;;20.83;5.28;;;8.50;99.90;;;;;;5032249;28;20949;-68
2023/12/21 02:27:36;;;;;;;27.83;5.68;;;8.40;99.90;;;;;;5056801;28;20041;-67
2023/12/21 02:30:03;;;;;;;28.80;5.65;;;8.80;99.90;;;;;;5059634;28;20045;-68
2023/12/21 02:32:28;;;;;;;20.52;5.03;;;9.10;99.90;;;;;;5065606;28;20052;-68
2023/12/21 02:34:54;;;;;;;18.40;5.68;;;8.50;99.90;;;;;;5052273;28;20029;-67
2023/12/21 02:37:20;;;;;;;22.70;4.70;;;8.50;99.90;;;;;;5059591;28;20059;-68
2023/12/21 02:39:45;;;;;;;17.00;4.72;;;8.50;99.90;;;;;;5043770;28;20039;-68
2023/12/21 02:42:11;;;;;;;16.38;4.97;;;8.90;99.90;;;;;;5058527;28;20033;-67
2023/12/21 02:44:37;;;;;;;20.88;5.30;;;9.10;99.90;;;;;;5069191;28;20029;-68
2023/12/21 02:47:02;;;;;;;19.35;5.20;;;8.50;99.90;;;;;;5070335;28;20170;-68
2023/12/21 02:49:28;;;;;;;23.27;5.05;;;9.00;99.90;;;;;;5060594;28;20058;-68
2023/12/21 02:51:55;;;;;;;14.65;4.80;;;9.20;99.90;;;;;;5060147;28;20047;-68
2023/12/21 02:54:21;;;;;;;18.42;4.97;;;9.10;99.90;;;;;;5055928;28;20421;-69
2023/12/21 02:56:46;;;;;;;19.40;5.13;;;9.00;99.90;;;;;;5049886;28;20048;-68
2023/12/21 02:59:12;;;;;;;20.92;5.32;;;9.10;99.90;;;;;;5056516;28;20135;-68
2023/12/21 03:01:41;;;;;;;20.17;5.10;;;9.10;99.90;;;;;;5044505;28;20040;-68
2023/12/21 03:04:09;;;;;;;19.87;5.07;;;8.60;99.90;;;;;;5062862;28;20215;-68
2023/12/21 03:06:34;;;;;;;20.75;5.78;;;8.40;99.90;;;;;;5051978;28;20037;-67
2023/12/21 03:09:00;;;;;;;19.25;5.32;;;8.60;99.90;;;;;;5041715;28;20039;-67
2023/12/21 03:11:26;;;;;;;16.10;4.80;;;9.00;99.90;;;;;;5054269;28;20055;-68
2023/12/21 03:13:52;;;;;;;14.10;5.10;;;9.20;99.90;;;;;;5056297;28;20152;-68
2023/12/21 03:16:18;;;;;;;16.08;4.35;;;8.50;99.90;;;;;;5039585;28;20051;-67
2023/12/21 03:18:46;;;;;;;16.95;4.93;;;9.10;99.90;;;;;;5069639;28;20586;-68
2023/12/21 03:21:12;;;;;;;15.82;5.20;;;9.20;99.90;;;;;;5041913;28;20029;-68
2023/12/21 03:23:40;;;;;;;16.85;5.32;;;9.00;99.90;;;;;;5050188;28;20587;-68
2023/12/21 03:26:06;;;;;;;17.80;5.25;;;9.00;99.90;;;;;;5048375;28;20036;-67
2023/12/21 03:28:32;;;;;;;19.88;6.20;;;8.50;99.90;;;;;;5050020;28;20040;-67
2023/12/21 03:30:58;;;;;;;22.00;5.03;;;9.00;99.90;;;;;;5059060;28;20058;-67
2023/12/21 03:33:23;;;;;;;18.13;5.00;;;9.00;99.90;;;;;;5054959;28;20485;-67
2023/12/21 03:35:49;;;;;;;20.08;5.45;;;9.00;99.90;;;;;;5053836;28;21375;-67
2023/12/21 03:38:14;;;;;;;17.67;4.95;;;8.90;99.90;;;;;;5055009;28;20047;-68
2023/12/21 03:40:40;;;;;;;19.02;4.47;;;8.30;99.90;;;;;;5053941;28;20033;-68
2023/12/21 03:43:06;;;;;;;12.93;5.00;;;8.30;99.90;;;;;;5054721;28;20044;-68
2023/12/21 03:45:32;;;;;;;12.80;3.78;;;9.10;99.90;;;;;;5050935;28;20380;-69
2023/12/21 03:47:57;;;;;;;12.13;3.65;;;8.50;99.90;;;;;;5041437;28;20041;-67
2023/12/21 03:50:23;;;;;;;10.63;3.70;;;8.30;99.90;;;;;;5064353;28;20040;-67
2023/12/21 03:52:49;;;;;;;9.90;4.00;;;8.40;99.90;;;;;;5065553;28;20079;-68
2023/12/21 03:55:14;;;;;;;15.85;4.00;;;9.20;99.90;;;;;;5064294;28;20160;-67
2023/12/21 03:57:40;;;;;;;10.40;3.25;;;9.10;99.90;;;;;;5051157;28;20507;-67
2023/12/21 04:00:08;;;;;;;12.95;3.45;;;8.30;99.90;;;;;;5061478;28;20123;-68
2023/12/21 04:02:36;;;;;;;14.93;3.72;;;9.20;99.90;;;;;;5059409;28;20148;-66
2023/12/21 04:05:02;;;;;;;10.45;3.10;;;8.30;99.90;;;;;;5062292;28;20053;-67
2023/12/21 04:07:28;;;;;;;10.00;3.53;;;8.40;99.90;;;;;;5059047;28;20089;-67
2023/12/21 04:09:53;;;;;;;13.75;3.47;;;8.70;99.90;;;;;;5062623;28;20407;-67
2023/12/21 04:12:19;;;;;;;10.63;3.63;;;8.50;99.90;;;;;;5068875;28;20043;-68
2023/12/21 04:14:44;;;;;;;10.82;3.85;;;8.30;99.90;;;;;;5056062;28;20051;-67
2023/12/21 04:17:10;;;;;;;11.45;4.00;;;8.80;99.90;;;;;;5068474;28;20032;-67
2023/12/21 04:19:36;;;;;;;16.33;4.00;;;8.50;99.90;;;;;;5079734;28;20119;-67
2023/12/21 04:22:01;;;;;;;14.52;3.60;;;8.30;99.90;;;;;;5065992;28;20032;-68
2023/12/21 04:24:27;;;;;;;10.82;3.25;;;9.10;99.90;;;;;;5056846;28;20527;-67
2023/12/21 04:26:52;;;;;;;10.30;3.90;;;8.40;99.90;;;;;;5051815;28;20039;-67
2023/12/21 04:29:18;;;;;;;8.35;3.40;;;9.00;99.90;;;;;;5059840;28;20048;-68
2023/12/21 04:31:44;;;;;;;9.65;3.53;;;9.10;99.90;;;;;;5050397;28;20117;-67
2023/12/21 04:34:10;;;;;;;12.40;3.63;;;8.70;99.90;;;;;;5055954;28;20128;-68
2023/12/21 04:36:36;;;;;;;13.20;4.18;;;9.10;99.90;;;;;;5055398;28;20127;-68
2023/12/21 04:39:02;;;;;;;10.70;3.50;;;8.40;99.90;;;;;;5054282;28;20032;-67
2023/12/21 04:41:27;;;;;;;12.32;3.70;;;8.50;99.90;;;;;;5038224;28;20108;-67
2023/12/21 04:43:53;;;;;;;15.98;4.10;;;8.40;99.90;;;;;;5065521;28;20151;-68
2023/12/21 04:46:19;;;;;;;11.43;4.30;;;9.20;99.90;;;;;;5042410;28;20040;-66
2023/12/21 04:48:45;;;;;;;13.20;3.97;;;9.00;99.90;;;;;;5061536;28;20050;-68
2023/12/21 04:51:17;;;;;;;14.88;5.15;;;9.10;99.90;;;;;;5062481;28;20044;-68
2023/12/21 04:53:44;;;;;;;18.65;5.40;;;8.40;99.90;;;;;;5059651;28;20042;-68
2023/12/21 04:56:09;;;;;;;20.23;6.30;;;9.00;99.90;;;;;;5060970;28;20058;-67
2023/12/21 04:58:35;;;;;;;13.73;5.10;;;8.60;99.90;;;;;;5073622;28;20036;-67
2023/12/21 05:01:01;;;;;;;12.35;4.40;;;9.00;99.90;;;;;;5064012;28;20211;-67
2023/12/21 05:03:26;;;;;;;16.73;4.75;;;8.60;99.90;;;;;;5057000;28;20173;-67
2023/12/21 05:05:52;;;;;;;15.13;5.20;;;9.10;99.90;;;;;;5055775;28;20036;-68
2023/12/21 05:08:18;;;;;;;17.15;4.80;;;9.20;99.90;;;;;;5071870;28;20165;-68
2023/12/21 05:10:44;;;;;;;18.13;4.90;;;9.20;99.90;;;;;;5049129;28;20038;-68
2023/12/21 05:13:10;;;;;;;15.23;5.38;;;8.50;99.90;;;;;;5076554;28;20151;-67
2023/12/21 05:15:35;;;;;;;18.83;5.30;;;8.30;99.90;;;;;;5070189;28;20455;-67
2023/12/21 05:18:01;;;;;;;15.18;4.57;;;9.10;99.90;;;;;;5058350;28;20032;-68
2023/12/21 05:20:27;;;;;;;13.73;4.70;;;8.50;99.90;;;;;;5061060;28;20054;-67
2023/12/21 05:22:52;;;;;;;18.63;5.18;;;8.60;99.90;;;;;;5061369;28;20334;-67
2023/12/21 05:25:18;;;;;;;14.50;4.45;;;9.20;99.90;;;;;;5058195;28;20051;-67
2023/12/21 05:27:44;;;;;;;18.98;4.75;;;8.50;99.90;;;;;;5050759;28;20579;-68
2023/12/21 05:30:10;;;;;;;16.00;4.90;;;9.20;99.90;;;;;;5051230;28;20059;-67
2023/12/21 05:32:35;;;;;;;14.27;4.65;;;9.20;99.90;;;;;;5041409;28;20041;-67
2023/12/21 05:35:02;;;;;;;15.05;4.65;;;8.90;99.90;;;;;;5061851;28;20567;-67
2023/12/21 05:37:28;;;;;;;13.65;4.82;;;9.10;99.90;;;;;;5054296;28;20044;-68
2023/12/21 05:39:54;;;;;;;17.45;4.70;;;8.30;99.90;;;;;;5053132;28;20039;-68
2023/12/21 05:42:19;;;;;;;13.43;4.40;;;8.40;99.90;;;;;;5074455;28;20082;-67
2023/12/21 05:44:45;;;;;;;12.68;4.43;;;9.00;99.90;;;;;;5054202;28;20044;-67
2023/12/21 05:47:10;;;;;;;13.13;5.47;;;9.10;99.90;;;;;;5063384;28;20059;-66
2023/12/21 05:49:36;;;;;;;17.77;4.95;;;9.30;99.90;;;;;;5054739;28;20031;-67
2023/12/21 05:52:02;;;;;;;14.77;4.88;;;9.00;99.90;;;;;;5063533;28;20105;-66
2023/12/21 05:54:29;;;;;;;17.20;4.57;;;8.30;99.90;;;;;;5051113;28;20129;-68
2023/12/21 05:56:55;;;;;;;16.52;4.60;;;9.10;99.90;;;;;;5065359;28;20160;-68
2023/12/21 05:59:21;;;;;;;13.43;4.13;;;9.10;99.90;;;;;;5057222;28;20418;-67
2023/12/21 06:01:46;;;;;;;14.82;4.03;;;9.00;99.90;;;;;;5057339;28;20034;-68
2023/12/21 06:04:12;;;;;;;15.82;4.38;;;8.50;99.90;;;;;;5070045;28;20097;-68
2023/12/21 06:06:38;;;;;;;11.57;4.13;;;8.60;99.90;;;;;;5060894;28;20059;-67
2023/12/21 06:09:07;;;;;;;14.82;3.65;;;9.30;99.90;;;;;;5058337;28;20040;-67
2023/12/21 06:11:33;;;;;;;11.60;3.08;;;8.90;99.90;;;;;;5072976;28;20044;-67
2023/12/21 06:13:59;;;;;;;8.02;3.42;;;9.00;99.90;;;;;;5068079;28;20188;-67
2023/12/21 06:16:24;;;;;;;9.13;3.10;;;9.00;99.90;;;;;;5065111;28;20443;-68
2023/12/21 06:18:50;;;;;;;14.18;3.50;;;9.10;99.90;;;;;;5081022;28;20476;-68
2023/12/21 06:21:16;;;;;;;12.20;3.28;;;9.10;99.90;;;;;;5057439;28;20048;-66
2023/12/21 06:23:42;;;;;;;12.32;3.28;;;8.80;99.90;;;;;;5059325;28;20082;-67
2023/12/21 06:26:08;;;;;;;14.05;4.10;;;9.00;99.90;;;;;;5045202;28;20051;-68
2023/12/21 06:28:33;;;;;;;8.40;3.40;;;8.50;99.90;;;;;;5047880;28;20044;-68
2023/12/21 06:30:59;;;;;;;9.25;3.90;;;8.40;99.90;;;;;;5068144;28;20055;-67
2023/12/21 06:33:26;;;;;;;10.75;3.50;;;8.40;99.90;;;;;;5062699;28;20556;-66
2023/12/21 06:35:52;;;;;;;13.50;3.20;;;9.10;99.90;;;;;;5060765;28;20064;-68
2023/12/21 06:38:18;;;;;;;12.55;4.18;;;8.80;99.90;;;;;;5064375;28;20070;-68
2023/12/21 06:40:43;;;;;;;12.13;3.72;;;9.30;99.90;;;;;;5093073;28;20457;-68
2023/12/21 06:43:09;;;;;;;13.02;3.75;;;8.60;99.90;;;;;;5081472;28;20109;-67
2023/12/21 06:45:35;;;;;;;14.65;3.88;;;8.40;99.90;;;;;;5078754;28;20046;-67
2023/12/21 06:48:01;;;;;;;13.80;3.90;;;9.00;99.90;;;;;;5088063;28;20059;-68
2023/12/21 06:50:27;;;;;;;13.27;3.97;;;8.50;99.90;;;;;;5082886;28;20424;-68
2023/12/21 06:52:53;;;;;;;14.40;4.10;;;9.10;99.90;;;;;;5074851;28;20114;-68
2023/12/21 06:55:19;;;;;;;18.10;4.25;;;8.40;99.90;;;;;;5054975;28;20040;-67
2023/12/21 06:57:44;;;;;;;10.05;3.15;;;9.20;99.90;;;;;;5061715;28;20118;-68
2023/12/21 07:00:11;;;;;;;12.02;3.47;;;8.40;99.90;;;;;;5071721;28;20035;-67
2023/12/21 07:02:37;;;;;;;11.65;3.17;;;9.10;99.90;;;;;;5057508;28;20044;-68
2023/12/21 07:05:02;;;;;;;11.35;3.70;;;8.40;99.90;;;;;;5052733;28;20040;-67
2023/12/21 07:07:28;;;;;;;11.15;3.58;;;9.20;99.90;;;;;;5050607;28;20114;-67
2023/12/21 07:09:55;;;;;;;9.25;3.13;;;9.30;99.90;;;;;;5074174;28;20044;-67
2023/12/21 07:12:22;;;;;;;10.35;3.20;;;9.20;99.90;;;;;;5042852;28;20032;-68
2023/12/21 07:14:48;;;;;;;13.75;3.20;;;8.60;99.90;;;;;;5053682;28;20054;-65
2023/12/21 07:17:17;;;;;;;12.52;2.88;;;8.50;99.90;;;;;;5073942;28;22486;-67
2023/12/21 07:19:42;;;;;;;12.85;3.10;;;8.60;99.90;;;;;;5055407;28;20931;-67
2023/12/21 07:22:08;;;;;;;11.05;2.70;;;9.30;99.90;;;;;;5052626;28;20032;-67
2023/12/21 07:24:34;;;;;;;8.27;3.63;;;9.20;99.90;;;;;;5055344;28;20153;-67
2023/12/21 07:27:00;;;;;;;5.97;2.42;;;9.30;99.90;;;;;;5057782;28;20051;-67
2023/12/21 07:29:26;;;;;;;10.63;2.80;;;9.30;99.90;;;;;;5051301;28;20047;-67
2023/12/21 07:31:52;;;;;;;7.68;2.40;;;9.30;99.90;;;;;;5063360;28;20055;-67
2023/12/21 07:34:18;;;;;;;8.02;2.10;;;8.80;99.90;;;;;;5053441;28;20120;-67
2023/12/21 07:36:43;;;;;;;8.57;2.30;;;9.40;99.90;;;;;;5062924;28;20085;-68
2023/12/21 07:39:09;;;;;;;3.97;1.80;;;8.60;99.90;;;;;;5066967;28;20038;-67
2023/12/21 07:41:34;;;;;;;4.43;1.60;;;9.10;99.90;;;;;;5085773;28;20040;-67
2023/12/21 07:44:01;;;;;;;3.50;1.52;;;8.70;99.90;;;;;;5075129;28;20044;-67
2023/12/21 07:46:26;;;;;;;4.50;1.70;;;8.60;99.90;;;;;;5068036;28;20097;-68
2023/12/21 07:48:52;;;;;;;7.43;1.75;;;8.50;99.90;;;;;;5069877;28;20534;-66
2023/12/21 07:51:17;;;;;;;7.45;1.70;;;9.10;99.90;;;;;;5055613;28;20048;-68
2023/12/21 07:53:43;;;;;;;7.70;1.60;;;8.70;99.90;;;;;;5067414;28;20306;-68
2023/12/21 07:56:09;;;;;;;5.70;1.60;;;9.20;99.90;;;;;;5061113;28;20394;-67
2023/12/21 07:58:35;;;;;;;7.18;1.85;;;8.50;99.90;;;;;;5083146;28;20066;-67
2023/12/21 08:01:00;;;;;;;5.15;1.65;;;9.20;99.90;;;;;;5065130;28;20059;-67
2023/12/21 08:03:26;;;;;;;6.50;1.58;;;8.50;99.90;;;;;;5079691;28;20040;-68
2023/12/21 08:05:52;;;;;;;7.20;1.63;;;9.30;99.90;;;;;;5053597;28;20135;-67
2023/12/21 08:08:19;;;;;;;9.32;1.90;;;8.80;99.90;;;;;;5067659;28;20071;-67
2023/12/21 08:10:45;;;;;;;6.28;1.50;;;9.20;99.90;;;;;;5052595;28;20040;-67
2023/12/21 08:13:11;;;;;;;5.13;1.85;;;9.00;99.90;;;;;;5058185;28;20412;-69
2023/12/21 08:15:37;;;;;;;2.80;1.17;;;8.60;99.90;;;;;;5060434;28;20051;-69
2023/12/21 08:18:03;;;;;;;1.50;1.00;;;9.20;99.90;;;;;;5071452;28;20032;-70
2023/12/21 08:20:29;;;;;;;2.60;1.20;;;8.80;99.90;;;;;;5071868;28;20115;-70
2023/12/21 08:22:55;;;;;;;4.68;1.23;;;8.80;99.90;;;;;;5064115;28;20358;-71
2023/12/21 08:25:23;;;;;;;3.38;1.25;;;8.50;99.90;;;;;;5057461;28;20036;-71
2023/12/21 08:27:48;;;;;;;4.30;1.00;;;8.70;99.90;;;;;;5063617;28;20047;-72
2023/12/21 08:30:14;;;;;;;4.15;1.50;;;9.00;99.90;;;;;;5079544;28;20451;-70
2023/12/21 08:32:40;;;;;;;3.00;1.20;;;9.40;99.90;;;;;;5057467;28;20045;-71
2023/12/21 08:35:06;;;;;;;3.08;1.00;;;9.00;99.90;;;;;;5063575;28;20044;-69
2023/12/21 08:37:32;;;;;;;3.33;1.10;;;8.90;99.90;;;;;;5069294;28;20257;-71
2023/12/21 08:39:58;;;;;;;1.70;0.77;;;9.20;99.90;;;;;;5048531;28;20442;-71
2023/12/21 08:42:26;;;;;;;3.20;1.13;;;9.40;99.90;;;;;;5049946;28;20361;-69
2023/12/21 08:44:52;;;;;;;2.72;1.00;;;9.20;99.90;;;;;;5046179;28;20040;-73
2023/12/21 08:47:18;;;;;;;1.70;1.10;;;9.30;99.90;;;;;;5058995;28;20063;-72
2023/12/21 08:49:44;;;;;;;3.47;1.00;;;8.80;99.90;;;;;;5068055;28;20192;-71
2023/12/21 08:52:09;;;;;;;5.53;1.23;;;9.20;99.90;;;;;;5067820;28;20090;-73
2023/12/21 08:54:35;;;;;;;3.05;1.20;;;9.30;99.90;;;;;;5048549;28;20040;-71
2023/12/21 08:57:04;;;;;;;3.47;0.95;;;9.20;99.90;;;;;;5041785;28;20098;-71
2023/12/21 08:59:29;;;;;;;6.60;1.35;;;9.20;99.90;;;;;;5050787;28;20437;-73
2023/12/21 09:01:55;;;;;;;3.50;1.38;;;9.30;99.90;;;;;;5059859;28;20108;-69
2023/12/21 09:04:21;;;;;;;8.02;1.67;;;9.00;99.90;;;;;;5058266;28;20052;-71
2023/12/21 09:06:46;;;;;;;4.85;1.60;;;9.10;99.90;;;;;;5055276;28;20043;-72
2023/12/21 09:09:13;;;;;;;4.88;1.40;;;9.50;99.90;;;;;;5068592;28;20036;-72
2023/12/21 09:11:39;;;;;;;7.07;1.70;;;9.00;99.90;;;;;;5061918;28;20083;-72
2023/12/21 09:14:07;;;;;;;9.10;1.98;;;8.80;99.90;;;;;;5064075;28;20523;-71
2023/12/21 09:16:33;;;;;;;4.07;1.50;;;9.50;99.90;;;;;;5062668;28;20115;-71
2023/12/21 09:18:58;;;;;;;8.40;1.63;;;9.50;99.90;;;;;;5056661;28;20119;-69
2023/12/21 09:21:24;;;;;;;7.28;1.80;;;9.40;99.90;;;;;;5055943;28;20032;-70
2023/12/21 09:23:50;;;;;;;5.47;1.48;;;8.80;99.90;;;;;;5063391;28;20044;-69
2023/12/21 09:26:15;;;;;;;6.97;1.60;;;9.00;99.90;;;;;;5064535;28;20610;-69
2023/12/21 09:28:41;;;;;;;10.82;2.20;;;9.40;99.90;;;;;;5036096;28;20100;-72
2023/12/21 09:31:07;;;;;;;9.15;1.85;;;9.40;99.90;;;;;;5045801;28;20130;-69
2023/12/21 09:33:34;;;;;;;16.00;2.00;;;9.00;99.90;;;;;;5057799;28;20040;-67
2023/12/21 09:36:06;;;;;;;4.65;1.60;;;9.50;99.90;;;;;;5058457;28;20408;-68
2023/12/21 09:38:32;;;;;;;8.32;1.90;;;9.20;99.90;;;;;;5054481;28;20028;-70
2023/12/21 09:40:59;;;;;;;8.77;2.00;;;9.60;99.90;;;;;;5055037;28;20051;-67
2023/12/21 09:43:25;;;;;;;7.32;1.48;;;9.00;99.90;;;;;;5065133;28;20040;-68
2023/12/21 09:45:51;;;;;;;6.90;1.65;;;9.70;99.90;;;;;;5062362;28;20059;-68
2023/12/21 09:48:18;;;;;;;9.60;1.77;;;9.10;99.90;;;;;;5069204;28;20047;-68
2023/12/21 09:50:45;;;;;;;12.27;1.85;;;9.50;99.90;;;;;;5075596;28;20044;-68
2023/12/21 09:53:15;;;;;;;14.75;2.00;;;9.70;99.90;;;;;;5066900;28;20040;-69
2023/12/21 09:55:47;;;;;;;11.80;2.80;;;9.30;99.90;;;;;;5059023;28;20456;-69
2023/12/21 09:58:13;;;;;;;18.33;2.80;;;9.60;99.90;;;;;;5058748;28;20112;-70
2023/12/21 10:00:39;;;;;;;9.63;2.75;;;9.80;99.90;;;;;;5055363;28;20032;-74
2023/12/21 10:03:05;;;;;;;13.45;2.28;;;9.20;99.90;;;;;;5058098;28;20127;-69
2023/12/21 10:05:34;;;;;;;17.50;3.40;;;9.30;99.90;;;;;;5047598;28;20044;-70
2023/12/21 10:08:01;;;;;;;10.18;2.20;;;9.40;99.90;;;;;;5054031;28;20089;-71
2023/12/21 10:10:27;;;;;;;10.57;2.35;;;10.00;99.90;;;;;;5058714;28;20036;-74
2023/12/21 10:12:52;;;;;;;16.90;2.90;;;10.10;99.90;;;;;;5053553;28;20442;-73
2023/12/21 10:15:19;;;;;;;15.77;3.60;;;10.10;99.90;;;;;;5046898;28;20058;-71
2023/12/21 10:17:45;;;;;;;17.92;3.28;;;9.90;99.90;;;;;;5092138;28;20032;-70
2023/12/21 10:20:11;;;;;;;20.40;3.67;;;10.10;99.90;;;;;;5046803;28;20400;-71
2023/12/21 10:22:43;;;;;;;12.07;3.17;;;10.10;99.90;;;;;;5056742;28;20066;-71
2023/12/21 10:25:12;;;;;;;15.00;3.58;;;9.70;99.90;;;;;;5037860;28;20080;-69
2023/12/21 10:27:40;;;;;;;11.93;3.10;;;9.90;99.90;;;;;;5062104;28;20036;-69
2023/12/21 10:30:06;;;;;;;15.35;3.10;;;9.40;99.90;;;;;;5056033;28;20044;-68
2023/12/21 10:32:32;;;;;;;25.33;4.47;;;10.00;99.90;;;;;;5068932;28;20094;-71
2023/12/21 10:34:59;;;;;;;14.02;3.70;;;10.10;99.90;;;;;;5057498;28;20076;-69
2023/12/21 10:37:25;;;;;;;14.05;2.95;;;9.40;99.90;;;;;;5075144;28;20039;-69
2023/12/21 10:39:52;;;;;;;16.67;2.78;;;9.40;99.90;;;;;;5052962;28;20380;-79
2023/12/21 10:42:19;;;;;;;15.25;3.30;;;9.70;99.90;;;;;;5063327;28;20040;-73
2023/12/21 10:44:49;;;;;;;20.08;3.20;;;9.70;99.90;;;;;;5041012;28;20045;-70
2023/12/21 10:47:18;;;;;;;19.40;3.53;;;10.00;99.90;;;;;;5063786;28;20040;-71
2023/12/21 10:49:44;;;;;;;13.18;2.40;;;10.10;99.90;;;;;;5064941;28;20075;-72
2023/12/21 10:52:14;;;;;;;23.92;3.88;;;10.20;99.90;;;;;;5065752;28;20406;-70
2023/12/21 10:54:42;;;;;;;18.58;2.63;;;9.80;99.90;;;;;;5063910;28;20040;-70
2023/12/21 10:57:09;;;;;;;17.25;1.92;;;9.90;99.90;;;;;;5066884;28;20544;-74
2023/12/21 10:59:37;;;;;;;16.67;3.00;;;9.80;99.90;;;;;;5065910;28;20032;-71
2023/12/21 11:02:04;;;;;;;18.45;4.03;;;10.00;99.90;;;;;;5064308;28;20050;-77
2023/12/21 11:04:31;;;;;;;18.55;3.08;;;9.80;99.90;;;;;;5058882;28;20043;-77
2023/12/21 11:06:57;;;;;;;14.60;2.75;;;10.00;99.90;;;;;;5055644;28;20188;-72
2023/12/21 11:09:25;;;;;;;21.52;3.38;;;10.30;99.90;;;;;;5046726;28;20480;-72
2023/12/21 11:11:56;;;;;;;20.52;3.40;;;9.90;99.90;;;;;;5068452;28;20044;-71
2023/12/21 11:14:23;;;;;;;16.33;2.40;;;9.50;99.90;;;;;;5041162;28;20040;-74
2023/12/21 11:16:56;;;;;;;14.23;2.38;;;9.90;99.90;;;;;;5061514;28;20472;-75
2023/12/21 11:19:34;;;;;;;14.32;2.17;;;9.90;99.90;;;;;;5055890;28;20112;-69
2023/12/21 11:22:01;;;;;;;13.77;2.30;;;10.10;99.90;;;;;;5061281;28;20032;-70
2023/12/21 11:24:26;;;;;;;17.13;2.60;;;10.20;99.90;;;;;;5066410;28;20092;-72
2023/12/21 11:26:52;;;;;;;17.75;2.15;;;9.60;99.90;;;;;;5060218;28;20029;-76
2023/12/21 11:29:24;;;;;;;17.50;2.28;;;10.00;99.90;;;;;;5059542;28;20047;-72
2023/12/21 11:31:50;;;;;;;15.85;2.80;;;10.00;99.90;;;;;;5057807;28;20040;-71
2023/12/21 11:34:21;;;;;;;20.42;2.38;;;9.70;99.90;;;;;;5067346;28;20491;-73
2023/12/21 11:36:57;;;;;;;15.60;2.65;;;10.10;99.90;;;;;;5052499;28;20418;-76
2023/12/21 11:39:24;;;;;;;21.90;3.47;;;9.50;99.90;;;;;;5079087;28;20554;-71
2023/12/21 11:41:56;;;;;;;14.95;2.88;;;10.00;99.90;;;;;;5076040;28;20069;-76
2023/12/21 11:44:23;;;;;;;11.90;2.00;;;9.50;99.90;;;;;;5076204;28;20036;-74
2023/12/21 11:46:50;;;;;;;24.00;2.63;;;9.30;99.90;;;;;;5065176;28;20452;-71
2023/12/21 11:49:23;;;;;;;18.20;2.35;;;9.80;99.90;;;;;;5053374;28;20387;-75
2023/12/21 11:51:50;;;;;;;22.08;2.63;;;9.80;99.90;;;;;;5057906;28;20055;-72
2023/12/21 11:54:23;;;;;;;20.55;2.95;;;9.30;99.90;;;;;;5072523;28;20181;-72
2023/12/21 11:57:10;;;;;;;17.40;2.63;;;9.70;99.90;;;;;;5060008;28;20039;-78
2023/12/21 11:59:36;;;;;;;19.27;2.83;;;9.50;99.90;;;;;;5057189;28;20438;-72
2023/12/21 12:02:06;;;;;;;16.58;2.90;;;9.50;99.90;;;;;;5060588;28;20330;-73
2023/12/21 12:04:32;;;;;;;25.83;5.53;;;9.50;99.90;;;;;;5064617;28;20036;-71
2023/12/21 12:06:58;;;;;;;26.35;3.20;;;9.50;99.90;;;;;;5073345;28;20402;-69
2023/12/21 12:09:23;;;;;;;19.90;3.30;;;9.70;99.90;;;;;;5061904;28;20044;-68
2023/12/21 12:11:51;;;;;;;17.58;2.55;;;9.20;99.90;;;;;;5073790;28;20090;-69
2023/12/21 12:14:18;;;;;;;15.25;2.40;;;9.50;99.90;;;;;;5080073;28;20051;-69
2023/12/21 12:16:43;;;;;;;20.10;3.35;;;9.80;99.90;;;;;;5071868;28;20038;-70
2023/12/21 12:19:13;;;;;;;20.80;3.35;;;9.30;99.90;;;;;;5039482;28;20029;-69
2023/12/21 12:21:39;;;;;;;15.77;3.25;;;9.40;99.90;;;;;;5059106;28;20081;-70
2023/12/21 12:24:07;;;;;;;23.55;3.35;;;9.50;99.90;;;;;;5056330;28;20051;-69
2023/12/21 12:26:36;;;;;;;23.05;3.22;;;9.10;99.90;;;;;;5051522;28;20106;-69
2023/12/21 12:29:03;;;;;;;18.05;3.03;;;9.60;99.90;;;;;;5066452;28;20476;-70
2023/12/21 12:31:29;;;;;;;18.20;3.42;;;9.40;99.90;;;;;;5049541;28;20047;-70
2023/12/21 12:33:55;;;;;;;14.68;2.83;;;9.30;99.90;;;;;;5058957;28;20048;-70
2023/12/21 12:36:21;;;;;;;18.98;2.75;;;9.50;99.90;;;;;;5040211;28;20036;-71
2023/12/21 12:38:48;;;;;;;20.98;3.20;;;9.40;99.90;;;;;;5052976;28;20468;-69
2023/12/21 12:41:22;;;;;;;20.17;3.40;;;9.50;99.90;;;;;;5066167;28;20032;-71
2023/12/21 12:43:49;;;;;;;18.23;2.80;;;9.60;99.90;;;;;;5051751;28;20105;-73